createdAt,value
2023-03-23T15:59:52.892Z,4.00
2023-03-23T16:02:29.225Z,4.40
2023-03-23T16:05:04.795Z,6.60
2023-03-23T16:07:40.948Z,14.20
2023-03-23T16:10:22.338Z,4.90
2023-03-23T16:12:56.928Z,8.60
2023-03-23T16:15:33.094Z,6.40
2023-03-23T16:18:07.716Z,6.80
2023-03-23T16:20:50.208Z,5.30
2023-03-23T16:23:24.937Z,5.90
2023-03-23T16:26:01.579Z,6.80
2023-03-23T16:28:36.602Z,8.00
2023-03-23T16:31:10.210Z,7.90
2023-03-23T16:33:50.226Z,7.90
2023-03-23T16:36:27.985Z,8.60
2023-03-23T16:39:03.478Z,8.90
2023-03-23T16:41:42.358Z,9.50
2023-03-23T16:44:19.486Z,10.10
2023-03-23T16:46:58.427Z,10.30
2023-03-23T16:49:39.585Z,7.60
2023-03-23T16:52:13.582Z,7.60
2023-03-23T16:54:51.154Z,7.90
2023-03-23T16:57:31.310Z,8.50
2023-03-23T17:00:08.012Z,10.40
2023-03-23T17:02:45.606Z,9.40
2023-03-23T17:05:23.419Z,7.40
2023-03-23T17:08:04.000Z,6.80
2023-03-23T17:10:43.075Z,7.30
2023-03-23T17:13:22.530Z,14.80
2023-03-23T17:16:03.247Z,14.60
2023-03-23T17:18:47.722Z,12.90
2023-03-23T17:21:26.414Z,12.70
2023-03-23T17:24:04.443Z,25.20
2023-03-23T17:26:40.005Z,17.60
2023-03-23T17:29:18.863Z,17.10
2023-03-23T17:31:59.400Z,19.70
2023-03-23T17:34:34.331Z,21.20
2023-03-23T17:37:11.893Z,20.00
2023-03-23T17:39:47.570Z,24.30
2023-03-23T17:42:29.210Z,21.90
2023-03-23T17:45:22.980Z,20.50
2023-03-23T17:47:56.328Z,18.90
2023-03-23T17:50:32.704Z,13.40
2023-03-23T17:53:10.236Z,13.60
2023-03-23T17:55:46.671Z,8.00
2023-03-23T17:58:22.570Z,12.60
2023-03-23T18:01:02.280Z,16.10
2023-03-23T18:03:38.605Z,15.00
2023-03-23T18:06:15.197Z,8.40
2023-03-23T18:08:51.822Z,15.70
2023-03-23T18:11:26.867Z,13.00
2023-03-23T18:14:00.564Z,8.00
2023-03-23T18:16:35.450Z,8.70
2023-03-23T18:19:10.546Z,8.20
2023-03-23T18:21:51.379Z,7.80
2023-03-23T18:24:27.035Z,6.60
2023-03-23T18:27:03.397Z,6.40
2023-03-23T18:29:43.710Z,6.50
2023-03-23T18:32:22.093Z,7.10
2023-03-23T18:35:03.400Z,6.50
2023-03-23T18:37:42.125Z,6.30
2023-03-23T18:40:22.908Z,7.00
2023-03-23T18:43:00.828Z,7.90
2023-03-23T18:45:36.801Z,7.90
2023-03-23T18:48:14.356Z,7.30
2023-03-23T18:50:54.991Z,6.80
2023-03-23T18:53:33.874Z,7.10
2023-03-23T18:56:14.837Z,8.00
2023-03-23T18:58:53.300Z,9.30
2023-03-23T19:01:29.874Z,10.80
2023-03-23T19:04:07.467Z,12.80
2023-03-23T19:06:49.660Z,12.90
2023-03-23T19:09:25.645Z,12.50
2023-03-23T19:12:05.662Z,14.10
2023-03-23T19:14:43.606Z,16.20
2023-03-23T19:17:21.694Z,12.70
2023-03-23T19:19:59.052Z,9.80
2023-03-23T19:22:35.628Z,10.30
2023-03-23T19:25:12.938Z,12.50
2023-03-23T19:28:33.715Z,10.90
2023-03-23T19:30:51.206Z,10.10
2023-03-23T19:33:31.083Z,9.40
2023-03-23T19:36:12.986Z,16.40
2023-03-23T19:38:48.548Z,13.40
2023-03-23T19:41:30.242Z,14.30
2023-03-23T19:44:12.098Z,11.40
2023-03-23T19:46:49.393Z,12.40
2023-03-23T19:49:26.216Z,13.70
2023-03-23T19:52:08.027Z,12.30
2023-03-23T19:54:50.193Z,12.70
2023-03-23T19:57:29.314Z,11.30
2023-03-23T20:00:13.551Z,10.30
2023-03-23T20:02:52.604Z,8.10
2023-03-23T20:05:31.115Z,7.40
2023-03-23T20:08:07.606Z,7.00
2023-03-23T20:10:46.647Z,6.50
2023-03-23T20:13:31.957Z,5.70
2023-03-23T20:16:14.576Z,5.10
2023-03-23T20:18:50.691Z,4.60
2023-03-23T20:21:36.075Z,4.20
2023-03-23T20:24:12.662Z,3.70
2023-03-23T20:26:50.000Z,3.90
2023-03-23T20:29:31.855Z,4.00
2023-03-23T20:32:13.443Z,3.20
2023-03-23T20:34:50.007Z,3.70
2023-03-23T20:37:43.159Z,3.60
2023-03-23T20:40:21.859Z,3.60
2023-03-23T20:43:21.055Z,3.90
2023-03-23T20:45:58.012Z,3.70
2023-03-23T20:48:40.959Z,3.60
2023-03-23T20:51:23.363Z,4.10
2023-03-23T20:53:56.256Z,4.00
2023-03-23T20:56:33.659Z,3.70
2023-03-23T20:59:13.036Z,4.60
2023-03-23T21:01:51.148Z,4.60
2023-03-23T21:04:31.220Z,4.40
2023-03-23T21:07:07.926Z,4.60
2023-03-23T21:09:43.367Z,4.80
2023-03-23T21:12:20.488Z,4.80
2023-03-23T21:14:58.251Z,5.00
2023-03-23T21:17:35.057Z,4.90
2023-03-23T21:20:17.047Z,4.50
2023-03-23T21:22:53.661Z,4.10
2023-03-23T21:25:35.371Z,3.90
2023-03-23T21:28:11.005Z,3.70
2023-03-23T21:30:46.299Z,3.90
2023-03-23T21:33:24.926Z,4.30
2023-03-23T21:36:03.181Z,4.00
2023-03-23T21:38:40.457Z,4.80
2023-03-23T21:41:15.658Z,4.20
2023-03-23T21:43:52.371Z,4.40
2023-03-23T21:46:39.515Z,4.40
2023-03-23T21:49:16.899Z,4.60
2023-03-23T21:51:52.539Z,4.80
2023-03-23T21:54:31.148Z,4.80
2023-03-23T21:57:08.260Z,4.50
2023-03-23T21:59:47.311Z,5.10
2023-03-23T22:02:32.503Z,4.60
2023-03-23T22:05:10.097Z,5.00
2023-03-23T22:07:47.052Z,4.70
2023-03-23T22:10:25.883Z,4.80
2023-03-23T22:13:01.111Z,5.40
2023-03-23T22:15:37.807Z,5.40
2023-03-23T22:18:14.010Z,5.80
2023-03-23T22:20:52.358Z,6.50
2023-03-23T22:23:29.281Z,6.70
2023-03-23T22:26:09.278Z,6.60
2023-03-23T22:28:45.852Z,5.60
2023-03-23T22:31:23.622Z,4.70
2023-03-23T22:34:01.864Z,5.20
2023-03-23T22:36:36.763Z,6.00
2023-03-23T22:39:17.140Z,5.90
2023-03-23T22:41:53.912Z,5.40
2023-03-23T22:44:39.665Z,5.70
2023-03-23T22:47:14.893Z,5.70
2023-03-23T22:49:53.782Z,5.60
2023-03-23T22:52:29.346Z,5.70
2023-03-23T22:55:15.591Z,5.60
2023-03-23T22:57:59.157Z,5.60
2023-03-23T23:00:42.984Z,5.60
2023-03-23T23:03:19.404Z,6.20
2023-03-23T23:06:02.122Z,6.40
2023-03-23T23:08:39.746Z,6.70
2023-03-23T23:11:18.120Z,6.70
2023-03-23T23:13:55.272Z,7.00
2023-03-23T23:16:34.964Z,6.60
2023-03-23T23:19:17.371Z,6.90
2023-03-23T23:22:01.832Z,6.70
2023-03-23T23:24:49.122Z,6.00
2023-03-23T23:27:28.956Z,6.60
2023-03-23T23:30:04.224Z,6.30
2023-03-23T23:32:44.098Z,6.30
2023-03-23T23:35:20.850Z,6.80
2023-03-23T23:37:58.076Z,7.30
2023-03-23T23:40:37.637Z,6.20
2023-03-23T23:43:17.604Z,6.90
2023-03-23T23:45:56.794Z,7.00
2023-03-23T23:48:41.562Z,7.50
2023-03-23T23:51:18.592Z,8.40
2023-03-23T23:53:59.356Z,9.20
2023-03-23T23:56:37.971Z,9.80
2023-03-23T23:59:21.079Z,11.90
